Pilar de la Horadada, Spain
Current Conditions -  °F | °C
As of 9:00 AM on Sunday 26 Oct 2014 (Local Time) from LELC Reporting Station
Clear Clear  
Wind Chill: 57°   Ceiling: Unl
Heat Index: 57°   Visibility: 6mi
Dew Point: 50°   Wind: 3mph
Humidity: 77%   Direction: 270°W
Pressure: 30.12"   Gusts: NA
Location:  37.87°N, 0.79°W
Report Text: LELC 260700Z 27003KT CAVOK 14/10 Q1020 NOSIG
Loading
Personal Weather Stations






























Interactive Weather Map New forecast layout! Learn more

10-Day Weather Forecast

Advertisements
Track Severe Weather on mobile